sensor_id;sensor_type;location;lat;lon;timestamp;P1;durP1;ratioP1;P2;durP2;ratioP2
3911;SDS011;1971;51.778;10.330;2024-02-28T00:02:04;96.00;;;12.63;;
3911;SDS011;1971;51.778;10.330;2024-02-28T00:04:35;41.50;;;10.17;;
3911;SDS011;1971;51.778;10.330;2024-02-28T00:07:06;90.60;;;11.10;;
3911;SDS011;1971;51.778;10.330;2024-02-28T00:09:36;59.50;;;8.70;;
3911;SDS011;1971;51.778;10.330;2024-02-28T00:12:06;115.97;;;14.93;;
3911;SDS011;1971;51.778;10.330;2024-02-28T00:14:37;29.37;;;9.13;;
3911;SDS011;1971;51.778;10.330;2024-02-28T00:17:09;26.33;;;9.73;;
3911;SDS011;1971;51.778;10.330;2024-02-28T00:19:41;49.43;;;9.60;;
3911;SDS011;1971;51.778;10.330;2024-02-28T00:22:11;32.03;;;9.40;;
3911;SDS011;1971;51.778;10.330;2024-02-28T00:24:41;84.07;;;11.53;;
3911;SDS011;1971;51.778;10.330;2024-02-28T00:27:12;45.33;;;10.80;;
3911;SDS011;1971;51.778;10.330;2024-02-28T00:29:42;43.90;;;10.33;;
3911;SDS011;1971;51.778;10.330;2024-02-28T00:32:16;44.97;;;9.60;;
3911;SDS011;1971;51.778;10.330;2024-02-28T00:34:46;29.47;;;7.93;;
3911;SDS011;1971;51.778;10.330;2024-02-28T00:37:16;47.43;;;9.13;;
3911;SDS011;1971;51.778;10.330;2024-02-28T00:39:46;56.80;;;9.67;;
3911;SDS011;1971;51.778;10.330;2024-02-28T00:42:16;46.03;;;11.60;;
3911;SDS011;1971;51.778;10.330;2024-02-28T00:44:47;73.97;;;13.00;;
3911;SDS011;1971;51.778;10.330;2024-02-28T00:47:20;128.97;;;15.93;;
3911;SDS011;1971;51.778;10.330;2024-02-28T00:49:50;95.27;;;11.70;;
3911;SDS011;1971;51.778;10.330;2024-02-28T00:52:21;136.67;;;14.40;;
3911;SDS011;1971;51.778;10.330;2024-02-28T00:54:52;217.87;;;17.33;;
3911;SDS011;1971;51.778;10.330;2024-02-28T00:57:22;229.83;;;20.17;;
3911;SDS011;1971;51.778;10.330;2024-02-28T00:59:52;188.80;;;18.00;;
3911;SDS011;1971;51.778;10.330;2024-02-28T01:02:26;271.50;;;22.23;;
3911;SDS011;1971;51.778;10.330;2024-02-28T01:04:56;214.80;;;20.17;;
3911;SDS011;1971;51.778;10.330;2024-02-28T01:07:26;107.70;;;12.40;;
3911;SDS011;1971;51.778;10.330;2024-02-28T01:09:56;227.00;;;19.30;;
3911;SDS011;1971;51.778;10.330;2024-02-28T01:12:26;530.53;;;31.73;;
3911;SDS011;1971;51.778;10.330;2024-02-28T01:14:57;571.73;;;32.63;;
3911;SDS011;1971;51.778;10.330;2024-02-28T01:17:30;153.77;;;19.23;;
3911;SDS011;1971;51.778;10.330;2024-02-28T01:20:00;170.40;;;19.33;;
3911;SDS011;1971;51.778;10.330;2024-02-28T01:22:30;245.87;;;21.37;;
3911;SDS011;1971;51.778;10.330;2024-02-28T01:25:00;230.60;;;19.10;;
3911;SDS011;1971;51.778;10.330;2024-02-28T01:27:31;120.97;;;14.77;;
3911;SDS011;1971;51.778;10.330;2024-02-28T01:30:02;148.43;;;13.90;;
3911;SDS011;1971;51.778;10.330;2024-02-28T01:32:36;150.97;;;13.33;;
3911;SDS011;1971;51.778;10.330;2024-02-28T01:35:07;130.57;;;12.27;;
3911;SDS011;1971;51.778;10.330;2024-02-28T01:37:38;165.90;;;14.50;;
3911;SDS011;1971;51.778;10.330;2024-02-28T01:40:09;113.53;;;12.03;;
3911;SDS011;1971;51.778;10.330;2024-02-28T01:42:40;106.60;;;10.77;;
3911;SDS011;1971;51.778;10.330;2024-02-28T01:45:12;123.40;;;11.63;;
3911;SDS011;1971;51.778;10.330;2024-02-28T01:47:46;150.70;;;13.07;;
3911;SDS011;1971;51.778;10.330;2024-02-28T01:50:17;142.70;;;12.93;;
3911;SDS011;1971;51.778;10.330;2024-02-28T01:52:47;153.00;;;12.67;;
3911;SDS011;1971;51.778;10.330;2024-02-28T01:55:17;120.77;;;12.17;;
3911;SDS011;1971;51.778;10.330;2024-02-28T01:57:49;65.57;;;9.70;;
3911;SDS011;1971;51.778;10.330;2024-02-28T02:00:21;97.67;;;9.30;;
3911;SDS011;1971;51.778;10.330;2024-02-28T02:02:55;45.43;;;9.93;;
3911;SDS011;1971;51.778;10.330;2024-02-28T02:05:26;36.73;;;7.20;;
3911;SDS011;1971;51.778;10.330;2024-02-28T02:07:56;24.90;;;7.50;;
3911;SDS011;1971;51.778;10.330;2024-02-28T02:10:27;31.53;;;7.77;;
3911;SDS011;1971;51.778;10.330;2024-02-28T02:13:03;18.60;;;9.03;;
3911;SDS011;1971;51.778;10.330;2024-02-28T02:15:34;14.60;;;6.30;;
3911;SDS011;1971;51.778;10.330;2024-02-28T02:18:08;11.10;;;6.57;;
3911;SDS011;1971;51.778;10.330;2024-02-28T02:20:39;8.80;;;6.00;;
3911;SDS011;1971;51.778;10.330;2024-02-28T02:23:15;23.00;;;6.10;;
3911;SDS011;1971;51.778;10.330;2024-02-28T02:25:46;6.57;;;4.73;;
3911;SDS011;1971;51.778;10.330;2024-02-28T02:28:16;10.50;;;6.23;;
3911;SDS011;1971;51.778;10.330;2024-02-28T02:30:47;8.47;;;5.97;;
3911;SDS011;1971;51.778;10.330;2024-02-28T02:33:17;9.90;;;6.77;;
3911;SDS011;1971;51.778;10.330;2024-02-28T02:35:48;7.23;;;5.60;;
3911;SDS011;1971;51.778;10.330;2024-02-28T02:38:21;8.33;;;5.70;;
3911;SDS011;1971;51.778;10.330;2024-02-28T02:40:51;6.47;;;5.70;;
3911;SDS011;1971;51.778;10.330;2024-02-28T02:43:21;7.90;;;5.60;;
3911;SDS011;1971;51.778;10.330;2024-02-28T02:45:52;6.60;;;6.00;;
3911;SDS011;1971;51.778;10.330;2024-02-28T02:48:22;7.43;;;6.73;;
3911;SDS011;1971;51.778;10.330;2024-02-28T02:50:52;7.60;;;5.73;;
3911;SDS011;1971;51.778;10.330;2024-02-28T02:53:25;6.67;;;5.13;;
3911;SDS011;1971;51.778;10.330;2024-02-28T02:55:55;5.50;;;5.00;;
3911;SDS011;1971;51.778;10.330;2024-02-28T02:58:25;5.70;;;5.10;;
3911;SDS011;1971;51.778;10.330;2024-02-28T03:00:55;7.43;;;5.60;;
3911;SDS011;1971;51.778;10.330;2024-02-28T03:03:26;6.83;;;5.43;;
3911;SDS011;1971;51.778;10.330;2024-02-28T03:05:56;6.90;;;5.20;;
3911;SDS011;1971;51.778;10.330;2024-02-28T03:08:29;7.73;;;5.93;;
3911;SDS011;1971;51.778;10.330;2024-02-28T03:10:59;7.93;;;5.93;;
3911;SDS011;1971;51.778;10.330;2024-02-28T03:13:31;6.10;;;5.50;;
3911;SDS011;1971;51.778;10.330;2024-02-28T03:16:03;6.30;;;5.50;;
3911;SDS011;1971;51.778;10.330;2024-02-28T03:18:33;5.57;;;4.90;;
3911;SDS011;1971;51.778;10.330;2024-02-28T03:21:04;6.53;;;4.90;;
3911;SDS011;1971;51.778;10.330;2024-02-28T03:23:37;5.70;;;4.80;;
3911;SDS011;1971;51.778;10.330;2024-02-28T03:26:08;6.57;;;5.20;;
3911;SDS011;1971;51.778;10.330;2024-02-28T03:28:38;5.33;;;4.30;;
3911;SDS011;1971;51.778;10.330;2024-02-28T03:31:08;4.23;;;3.63;;
3911;SDS011;1971;51.778;10.330;2024-02-28T03:33:38;5.83;;;5.33;;
3911;SDS011;1971;51.778;10.330;2024-02-28T03:36:08;5.10;;;4.50;;
3911;SDS011;1971;51.778;10.330;2024-02-28T03:38:41;6.13;;;5.30;;
3911;SDS011;1971;51.778;10.330;2024-02-28T03:41:11;5.43;;;4.30;;
3911;SDS011;1971;51.778;10.330;2024-02-28T03:43:41;4.83;;;4.23;;
3911;SDS011;1971;51.778;10.330;2024-02-28T03:46:11;5.77;;;5.07;;
3911;SDS011;1971;51.778;10.330;2024-02-28T03:48:42;6.77;;;4.60;;
3911;SDS011;1971;51.778;10.330;2024-02-28T03:51:12;4.80;;;4.27;;
3911;SDS011;1971;51.778;10.330;2024-02-28T03:53:45;5.90;;;4.77;;
3911;SDS011;1971;51.778;10.330;2024-02-28T03:56:21;7.50;;;6.07;;
3911;SDS011;1971;51.778;10.330;2024-02-28T03:58:53;9.47;;;7.67;;
3911;SDS011;1971;51.778;10.330;2024-02-28T04:01:23;6.90;;;5.10;;
3911;SDS011;1971;51.778;10.330;2024-02-28T04:03:54;7.10;;;5.80;;
3911;SDS011;1971;51.778;10.330;2024-02-28T04:06:24;22.53;;;5.70;;
3911;SDS011;1971;51.778;10.330;2024-02-28T04:08:57;6.10;;;5.23;;
3911;SDS011;1971;51.778;10.330;2024-02-28T04:11:27;5.23;;;4.57;;
3911;SDS011;1971;51.778;10.330;2024-02-28T04:13:57;5.13;;;4.47;;
3911;SDS011;1971;51.778;10.330;2024-02-28T04:16:27;5.80;;;4.00;;
3911;SDS011;1971;51.778;10.330;2024-02-28T04:18:57;5.30;;;4.57;;
3911;SDS011;1971;51.778;10.330;2024-02-28T04:21:28;4.83;;;4.37;;
3911;SDS011;1971;51.778;10.330;2024-02-28T04:24:01;4.40;;;3.90;;
3911;SDS011;1971;51.778;10.330;2024-02-28T04:26:31;5.27;;;4.77;;
3911;SDS011;1971;51.778;10.330;2024-02-28T04:29:01;4.20;;;3.80;;
3911;SDS011;1971;51.778;10.330;2024-02-28T04:31:34;5.37;;;4.33;;
3911;SDS011;1971;51.778;10.330;2024-02-28T04:34:07;5.03;;;3.53;;
3911;SDS011;1971;51.778;10.330;2024-02-28T04:36:37;5.33;;;3.87;;
3911;SDS011;1971;51.778;10.330;2024-02-28T04:39:10;4.43;;;4.00;;
3911;SDS011;1971;51.778;10.330;2024-02-28T04:41:40;8.40;;;5.77;;
3911;SDS011;1971;51.778;10.330;2024-02-28T04:44:10;5.00;;;3.80;;
3911;SDS011;1971;51.778;10.330;2024-02-28T04:46:41;4.33;;;3.33;;
3911;SDS011;1971;51.778;10.330;2024-02-28T04:49:11;4.90;;;3.70;;
3911;SDS011;1971;51.778;10.330;2024-02-28T04:51:41;4.10;;;3.37;;
3911;SDS011;1971;51.778;10.330;2024-02-28T04:54:14;4.30;;;3.90;;
3911;SDS011;1971;51.778;10.330;2024-02-28T04:56:44;7.27;;;4.30;;
3911;SDS011;1971;51.778;10.330;2024-02-28T04:59:14;5.93;;;4.23;;
3911;SDS011;1971;51.778;10.330;2024-02-28T05:01:45;4.80;;;4.33;;
3911;SDS011;1971;51.778;10.330;2024-02-28T05:04:15;5.03;;;4.40;;
3911;SDS011;1971;51.778;10.330;2024-02-28T05:06:45;7.00;;;4.60;;
3911;SDS011;1971;51.778;10.330;2024-02-28T05:09:19;6.47;;;5.30;;
3911;SDS011;1971;51.778;10.330;2024-02-28T05:11:49;4.73;;;3.77;;
3911;SDS011;1971;51.778;10.330;2024-02-28T05:14:19;4.60;;;3.87;;
3911;SDS011;1971;51.778;10.330;2024-02-28T05:16:49;4.47;;;3.00;;
3911;SDS011;1971;51.778;10.330;2024-02-28T05:19:20;3.40;;;2.93;;
3911;SDS011;1971;51.778;10.330;2024-02-28T05:21:50;5.10;;;4.20;;
3911;SDS011;1971;51.778;10.330;2024-02-28T05:24:23;3.97;;;3.57;;
3911;SDS011;1971;51.778;10.330;2024-02-28T05:26:53;2.93;;;2.40;;
3911;SDS011;1971;51.778;10.330;2024-02-28T05:29:23;4.77;;;4.27;;
3911;SDS011;1971;51.778;10.330;2024-02-28T05:31:53;4.80;;;3.30;;
3911;SDS011;1971;51.778;10.330;2024-02-28T05:34:23;6.00;;;4.03;;
3911;SDS011;1971;51.778;10.330;2024-02-28T05:36:53;3.80;;;3.20;;
3911;SDS011;1971;51.778;10.330;2024-02-28T05:39:26;4.17;;;3.50;;
3911;SDS011;1971;51.778;10.330;2024-02-28T05:41:57;4.80;;;4.13;;
3911;SDS011;1971;51.778;10.330;2024-02-28T05:44:27;5.00;;;3.47;;
3911;SDS011;1971;51.778;10.330;2024-02-28T05:46:58;5.83;;;3.63;;
3911;SDS011;1971;51.778;10.330;2024-02-28T05:49:28;4.30;;;3.43;;
3911;SDS011;1971;51.778;10.330;2024-02-28T05:51:58;4.87;;;4.07;;
3911;SDS011;1971;51.778;10.330;2024-02-28T05:54:31;4.07;;;3.43;;
3911;SDS011;1971;51.778;10.330;2024-02-28T05:57:02;4.30;;;3.17;;
3911;SDS011;1971;51.778;10.330;2024-02-28T05:59:32;5.93;;;5.13;;
3911;SDS011;1971;51.778;10.330;2024-02-28T06:02:02;4.10;;;3.70;;
3911;SDS011;1971;51.778;10.330;2024-02-28T06:04:32;3.43;;;3.13;;
3911;SDS011;1971;51.778;10.330;2024-02-28T06:07:02;8.00;;;5.40;;
3911;SDS011;1971;51.778;10.330;2024-02-28T06:09:35;4.60;;;3.17;;
3911;SDS011;1971;51.778;10.330;2024-02-28T06:12:06;4.20;;;3.10;;
3911;SDS011;1971;51.778;10.330;2024-02-28T06:14:36;3.67;;;3.37;;
3911;SDS011;1971;51.778;10.330;2024-02-28T06:17:07;4.00;;;3.10;;
3911;SDS011;1971;51.778;10.330;2024-02-28T06:19:37;4.53;;;3.63;;
3911;SDS011;1971;51.778;10.330;2024-02-28T06:22:07;3.40;;;2.70;;
3911;SDS011;1971;51.778;10.330;2024-02-28T06:24:40;5.50;;;3.10;;
3911;SDS011;1971;51.778;10.330;2024-02-28T06:27:10;3.53;;;3.17;;
3911;SDS011;1971;51.778;10.330;2024-02-28T06:29:41;4.50;;;3.60;;
3911;SDS011;1971;51.778;10.330;2024-02-28T06:32:11;6.00;;;4.47;;
3911;SDS011;1971;51.778;10.330;2024-02-28T06:34:41;4.20;;;3.60;;
3911;SDS011;1971;51.778;10.330;2024-02-28T06:37:11;4.50;;;3.97;;
3911;SDS011;1971;51.778;10.330;2024-02-28T06:39:44;4.53;;;4.00;;
3911;SDS011;1971;51.778;10.330;2024-02-28T06:42:14;5.90;;;4.33;;
3911;SDS011;1971;51.778;10.330;2024-02-28T06:44:45;4.00;;;3.70;;
3911;SDS011;1971;51.778;10.330;2024-02-28T06:47:15;5.90;;;5.13;;
3911;SDS011;1971;51.778;10.330;2024-02-28T06:49:46;5.40;;;4.10;;
3911;SDS011;1971;51.778;10.330;2024-02-28T06:52:16;5.80;;;4.70;;
3911;SDS011;1971;51.778;10.330;2024-02-28T06:54:49;6.93;;;5.10;;
3911;SDS011;1971;51.778;10.330;2024-02-28T06:57:19;10.57;;;6.53;;
3911;SDS011;1971;51.778;10.330;2024-02-28T06:59:49;34.63;;;7.10;;
3911;SDS011;1971;51.778;10.330;2024-02-28T07:02:19;142.60;;;12.93;;
3911;SDS011;1971;51.778;10.330;2024-02-28T07:04:50;25.87;;;7.53;;
3911;SDS011;1971;51.778;10.330;2024-02-28T07:07:20;72.40;;;10.53;;
3911;SDS011;1971;51.778;10.330;2024-02-28T07:09:52;22.50;;;7.90;;
3911;SDS011;1971;51.778;10.330;2024-02-28T07:12:22;85.80;;;13.20;;
3911;SDS011;1971;51.778;10.330;2024-02-28T07:14:52;86.47;;;12.27;;
3911;SDS011;1971;51.778;10.330;2024-02-28T07:17:23;156.60;;;15.87;;
3911;SDS011;1971;51.778;10.330;2024-02-28T07:19:53;205.10;;;17.97;;
3911;SDS011;1971;51.778;10.330;2024-02-28T07:22:23;82.57;;;12.80;;
3911;SDS011;1971;51.778;10.330;2024-02-28T07:24:56;61.27;;;12.90;;
3911;SDS011;1971;51.778;10.330;2024-02-28T07:27:26;51.97;;;10.87;;
3911;SDS011;1971;51.778;10.330;2024-02-28T07:29:56;96.20;;;15.10;;
3911;SDS011;1971;51.778;10.330;2024-02-28T07:32:26;165.20;;;17.33;;
3911;SDS011;1971;51.778;10.330;2024-02-28T07:35:01;127.77;;;15.10;;
3911;SDS011;1971;51.778;10.330;2024-02-28T07:37:32;52.67;;;12.00;;
3911;SDS011;1971;51.778;10.330;2024-02-28T07:40:06;47.73;;;10.40;;
3911;SDS011;1971;51.778;10.330;2024-02-28T07:42:37;70.60;;;13.40;;
3911;SDS011;1971;51.778;10.330;2024-02-28T07:45:07;114.17;;;14.30;;
3911;SDS011;1971;51.778;10.330;2024-02-28T07:47:37;69.50;;;11.90;;
3911;SDS011;1971;51.778;10.330;2024-02-28T07:50:07;87.80;;;13.60;;
3911;SDS011;1971;51.778;10.330;2024-02-28T07:52:37;33.20;;;11.40;;
3911;SDS011;1971;51.778;10.330;2024-02-28T07:55:10;21.53;;;9.67;;
3911;SDS011;1971;51.778;10.330;2024-02-28T07:57:41;39.90;;;11.43;;
3911;SDS011;1971;51.778;10.330;2024-02-28T08:00:12;35.10;;;11.87;;
3911;SDS011;1971;51.778;10.330;2024-02-28T08:02:46;36.43;;;11.03;;
3911;SDS011;1971;51.778;10.330;2024-02-28T08:05:16;39.13;;;10.40;;
3911;SDS011;1971;51.778;10.330;2024-02-28T08:07:47;74.87;;;12.70;;
3911;SDS011;1971;51.778;10.330;2024-02-28T08:10:20;47.37;;;11.83;;
3911;SDS011;1971;51.778;10.330;2024-02-28T08:12:50;31.70;;;13.50;;
3911;SDS011;1971;51.778;10.330;2024-02-28T08:15:20;22.30;;;11.20;;
3911;SDS011;1971;51.778;10.330;2024-02-28T08:17:50;29.90;;;10.70;;
3911;SDS011;1971;51.778;10.330;2024-02-28T08:20:20;34.37;;;12.43;;
3911;SDS011;1971;51.778;10.330;2024-02-28T08:22:51;29.00;;;13.43;;
3911;SDS011;1971;51.778;10.330;2024-02-28T08:25:26;25.17;;;14.03;;
3911;SDS011;1971;51.778;10.330;2024-02-28T08:27:56;24.57;;;10.57;;
3911;SDS011;1971;51.778;10.330;2024-02-28T08:30:27;27.23;;;12.40;;
3911;SDS011;1971;51.778;10.330;2024-02-28T08:32:58;32.73;;;12.13;;
3911;SDS011;1971;51.778;10.330;2024-02-28T08:35:28;20.23;;;11.60;;
3911;SDS011;1971;51.778;10.330;2024-02-28T08:37:58;43.57;;;13.97;;
3911;SDS011;1971;51.778;10.330;2024-02-28T08:40:32;29.20;;;12.47;;
3911;SDS011;1971;51.778;10.330;2024-02-28T08:43:03;15.03;;;10.57;;
3911;SDS011;1971;51.778;10.330;2024-02-28T08:45:33;28.47;;;14.77;;
3911;SDS011;1971;51.778;10.330;2024-02-28T08:48:05;19.17;;;10.50;;
3911;SDS011;1971;51.778;10.330;2024-02-28T08:50:36;15.70;;;10.70;;
3911;SDS011;1971;51.778;10.330;2024-02-28T08:53:07;14.13;;;11.57;;
3911;SDS011;1971;51.778;10.330;2024-02-28T08:55:40;16.67;;;10.40;;
3911;SDS011;1971;51.778;10.330;2024-02-28T08:58:10;16.87;;;9.90;;
3911;SDS011;1971;51.778;10.330;2024-02-28T09:00:41;17.33;;;11.40;;
3911;SDS011;1971;51.778;10.330;2024-02-28T09:03:11;14.07;;;10.77;;
3911;SDS011;1971;51.778;10.330;2024-02-28T09:05:41;13.80;;;10.90;;
3911;SDS011;1971;51.778;10.330;2024-02-28T09:08:12;18.70;;;11.30;;
3911;SDS011;1971;51.778;10.330;2024-02-28T09:10:45;15.53;;;11.87;;
3911;SDS011;1971;51.778;10.330;2024-02-28T09:13:16;14.10;;;11.03;;
3911;SDS011;1971;51.778;10.330;2024-02-28T09:15:47;18.47;;;16.50;;
3911;SDS011;1971;51.778;10.330;2024-02-28T09:18:21;19.50;;;17.50;;
3911;SDS011;1971;51.778;10.330;2024-02-28T09:20:53;20.20;;;18.10;;
3911;SDS011;1971;51.778;10.330;2024-02-28T09:23:24;18.50;;;16.60;;
3911;SDS011;1971;51.778;10.330;2024-02-28T09:25:59;19.77;;;17.27;;
3911;SDS011;1971;51.778;10.330;2024-02-28T09:28:39;16.53;;;14.23;;
3911;SDS011;1971;51.778;10.330;2024-02-28T09:31:29;14.90;;;12.43;;
3911;SDS011;1971;51.778;10.330;2024-02-28T09:34:09;19.43;;;17.43;;
3911;SDS011;1971;51.778;10.330;2024-02-28T09:36:47;14.20;;;10.87;;
3911;SDS011;1971;51.778;10.330;2024-02-28T09:39:54;14.80;;;13.30;;
3911;SDS011;1971;51.778;10.330;2024-02-28T09:42:31;18.90;;;17.10;;
3911;SDS011;1971;51.778;10.330;2024-02-28T09:45:03;12.23;;;10.40;;
3911;SDS011;1971;51.778;10.330;2024-02-28T09:47:45;17.80;;;15.90;;
3911;SDS011;1971;51.778;10.330;2024-02-28T09:50:15;19.50;;;17.53;;
3911;SDS011;1971;51.778;10.330;2024-02-28T09:52:48;17.73;;;16.00;;
3911;SDS011;1971;51.778;10.330;2024-02-28T09:55:35;12.50;;;10.70;;
3911;SDS011;1971;51.778;10.330;2024-02-28T09:58:07;14.50;;;11.47;;
3911;SDS011;1971;51.778;10.330;2024-02-28T10:00:38;16.47;;;14.90;;
3911;SDS011;1971;51.778;10.330;2024-02-28T10:03:11;18.67;;;16.87;;
3911;SDS011;1971;51.778;10.330;2024-02-28T10:05:43;15.60;;;13.60;;
3911;SDS011;1971;51.778;10.330;2024-02-28T10:08:14;18.63;;;16.73;;
3911;SDS011;1971;51.778;10.330;2024-02-28T10:10:44;18.77;;;16.93;;
3911;SDS011;1971;51.778;10.330;2024-02-28T10:13:18;20.70;;;18.60;;
3911;SDS011;1971;51.778;10.330;2024-02-28T10:15:48;19.70;;;16.70;;
3911;SDS011;1971;51.778;10.330;2024-02-28T10:18:19;17.93;;;15.63;;
3911;SDS011;1971;51.778;10.330;2024-02-28T10:20:51;15.33;;;12.37;;
3911;SDS011;1971;51.778;10.330;2024-02-28T10:23:22;18.07;;;16.27;;
3911;SDS011;1971;51.778;10.330;2024-02-28T10:25:53;17.63;;;15.67;;
3911;SDS011;1971;51.778;10.330;2024-02-28T10:28:26;16.60;;;13.60;;
3911;SDS011;1971;51.778;10.330;2024-02-28T10:30:56;19.47;;;17.57;;
3911;SDS011;1971;51.778;10.330;2024-02-28T10:33:27;18.30;;;16.50;;
3911;SDS011;1971;51.778;10.330;2024-02-28T10:36:00;18.50;;;16.70;;
3911;SDS011;1971;51.778;10.330;2024-02-28T10:38:32;18.13;;;16.40;;
3911;SDS011;1971;51.778;10.330;2024-02-28T10:41:03;17.83;;;16.03;;
3911;SDS011;1971;51.778;10.330;2024-02-28T10:43:41;16.20;;;13.50;;
3911;SDS011;1971;51.778;10.330;2024-02-28T10:46:12;21.13;;;19.00;;
3911;SDS011;1971;51.778;10.330;2024-02-28T10:49:02;18.43;;;16.63;;
3911;SDS011;1971;51.778;10.330;2024-02-28T10:51:34;15.50;;;11.60;;
3911;SDS011;1971;51.778;10.330;2024-02-28T10:54:09;20.53;;;18.43;;
3911;SDS011;1971;51.778;10.330;2024-02-28T10:56:41;17.90;;;16.00;;
3911;SDS011;1971;51.778;10.330;2024-02-28T10:59:15;18.87;;;13.50;;
3911;SDS011;1971;51.778;10.330;2024-02-28T11:01:45;18.33;;;16.50;;
3911;SDS011;1971;51.778;10.330;2024-02-28T11:04:16;18.87;;;17.07;;
3911;SDS011;1971;51.778;10.330;2024-02-28T11:06:50;20.00;;;18.03;;
3911;SDS011;1971;51.778;10.330;2024-02-28T11:09:23;18.27;;;16.47;;
3911;SDS011;1971;51.778;10.330;2024-02-28T11:11:55;17.70;;;16.00;;
3911;SDS011;1971;51.778;10.330;2024-02-28T11:14:28;20.87;;;18.70;;
3911;SDS011;1971;51.778;10.330;2024-02-28T11:17:02;16.40;;;12.23;;
3911;SDS011;1971;51.778;10.330;2024-02-28T11:19:33;18.10;;;16.20;;
3911;SDS011;1971;51.778;10.330;2024-02-28T11:22:04;17.47;;;15.87;;
3911;SDS011;1971;51.778;10.330;2024-02-28T11:24:35;18.63;;;16.73;;
3911;SDS011;1971;51.778;10.330;2024-02-28T11:27:06;19.30;;;17.50;;
3911;SDS011;1971;51.778;10.330;2024-02-28T11:29:39;20.23;;;18.23;;
3911;SDS011;1971;51.778;10.330;2024-02-28T11:32:12;17.57;;;15.80;;
3911;SDS011;1971;51.778;10.330;2024-02-28T11:34:42;21.03;;;18.97;;
3911;SDS011;1971;51.778;10.330;2024-02-28T11:37:14;19.87;;;17.97;;
3911;SDS011;1971;51.778;10.330;2024-02-28T11:39:45;18.43;;;16.63;;
3911;SDS011;1971;51.778;10.330;2024-02-28T11:42:16;19.50;;;17.53;;
3911;SDS011;1971;51.778;10.330;2024-02-28T11:44:55;19.90;;;16.60;;
3911;SDS011;1971;51.778;10.330;2024-02-28T11:47:28;18.23;;;16.40;;
3911;SDS011;1971;51.778;10.330;2024-02-28T11:49:58;19.17;;;17.30;;
3911;SDS011;1971;51.778;10.330;2024-02-28T11:52:33;19.67;;;17.77;;
3911;SDS011;1971;51.778;10.330;2024-02-28T11:55:04;16.93;;;15.07;;
3911;SDS011;1971;51.778;10.330;2024-02-28T11:57:34;15.00;;;13.60;;
3911;SDS011;1971;51.778;10.330;2024-02-28T12:00:08;15.43;;;14.10;;
3911;SDS011;1971;51.778;10.330;2024-02-28T12:02:40;14.90;;;13.40;;
3911;SDS011;1971;51.778;10.330;2024-02-28T12:05:10;13.80;;;12.43;;
3911;SDS011;1971;51.778;10.330;2024-02-28T12:07:41;14.20;;;12.90;;
3911;SDS011;1971;51.778;10.330;2024-02-28T12:10:11;15.70;;;14.13;;
3911;SDS011;1971;51.778;10.330;2024-02-28T12:12:41;14.13;;;12.83;;
3911;SDS011;1971;51.778;10.330;2024-02-28T12:15:15;15.60;;;14.07;;
3911;SDS011;1971;51.778;10.330;2024-02-28T12:17:45;14.20;;;12.80;;
3911;SDS011;1971;51.778;10.330;2024-02-28T12:20:16;12.73;;;11.53;;
3911;SDS011;1971;51.778;10.330;2024-02-28T12:22:47;12.23;;;10.77;;
3911;SDS011;1971;51.778;10.330;2024-02-28T12:25:17;12.50;;;11.30;;
3911;SDS011;1971;51.778;10.330;2024-02-28T12:27:47;14.27;;;12.87;;
3911;SDS011;1971;51.778;10.330;2024-02-28T12:30:20;17.07;;;14.30;;
3911;SDS011;1971;51.778;10.330;2024-02-28T12:32:50;19.60;;;14.40;;
3911;SDS011;1971;51.778;10.330;2024-02-28T12:35:20;13.27;;;11.90;;
3911;SDS011;1971;51.778;10.330;2024-02-28T12:37:50;12.50;;;11.30;;
3911;SDS011;1971;51.778;10.330;2024-02-28T12:40:20;11.50;;;10.40;;
3911;SDS011;1971;51.778;10.330;2024-02-28T12:42:51;13.83;;;12.43;;
3911;SDS011;1971;51.778;10.330;2024-02-28T12:45:24;12.43;;;11.27;;
3911;SDS011;1971;51.778;10.330;2024-02-28T12:47:54;13.00;;;11.77;;
3911;SDS011;1971;51.778;10.330;2024-02-28T12:50:25;12.53;;;11.40;;
3911;SDS011;1971;51.778;10.330;2024-02-28T12:52:55;12.80;;;11.57;;
3911;SDS011;1971;51.778;10.330;2024-02-28T12:55:27;14.73;;;13.20;;
3911;SDS011;1971;51.778;10.330;2024-02-28T12:57:57;13.20;;;11.90;;
3911;SDS011;1971;51.778;10.330;2024-02-28T13:00:34;15.17;;;12.80;;
3911;SDS011;1971;51.778;10.330;2024-02-28T13:03:04;14.97;;;12.27;;
3911;SDS011;1971;51.778;10.330;2024-02-28T13:05:35;15.00;;;13.30;;
3911;SDS011;1971;51.778;10.330;2024-02-28T13:08:06;14.07;;;12.77;;
3911;SDS011;1971;51.778;10.330;2024-02-28T13:10:36;14.63;;;13.13;;
3911;SDS011;1971;51.778;10.330;2024-02-28T13:13:07;14.30;;;12.90;;
3911;SDS011;1971;51.778;10.330;2024-02-28T13:15:41;14.07;;;12.67;;
3911;SDS011;1971;51.778;10.330;2024-02-28T13:18:12;12.93;;;11.63;;
3911;SDS011;1971;51.778;10.330;2024-02-28T13:20:42;13.83;;;12.43;;
3911;SDS011;1971;51.778;10.330;2024-02-28T13:23:12;32.20;;;18.50;;
3911;SDS011;1971;51.778;10.330;2024-02-28T13:25:42;16.80;;;15.07;;
3911;SDS011;1971;51.778;10.330;2024-02-28T13:28:12;16.53;;;14.73;;
3911;SDS011;1971;51.778;10.330;2024-02-28T13:30:45;17.90;;;16.10;;
3911;SDS011;1971;51.778;10.330;2024-02-28T13:33:15;15.40;;;14.00;;
3911;SDS011;1971;51.778;10.330;2024-02-28T13:35:46;16.20;;;14.60;;
3911;SDS011;1971;51.778;10.330;2024-02-28T13:38:16;17.73;;;14.43;;
3911;SDS011;1971;51.778;10.330;2024-02-28T13:40:48;15.50;;;14.00;;
3911;SDS011;1971;51.778;10.330;2024-02-28T13:43:18;16.33;;;13.83;;
3911;SDS011;1971;51.778;10.330;2024-02-28T13:45:51;16.73;;;15.13;;
3911;SDS011;1971;51.778;10.330;2024-02-28T13:48:27;17.20;;;15.40;;
3911;SDS011;1971;51.778;10.330;2024-02-28T13:50:58;16.33;;;14.83;;
3911;SDS011;1971;51.778;10.330;2024-02-28T13:53:29;17.97;;;15.90;;
3911;SDS011;1971;51.778;10.330;2024-02-28T13:55:59;15.63;;;13.50;;
3911;SDS011;1971;51.778;10.330;2024-02-28T13:58:29;13.73;;;12.43;;
3911;SDS011;1971;51.778;10.330;2024-02-28T14:01:11;43.10;;;19.20;;
3911;SDS011;1971;51.778;10.330;2024-02-28T14:03:41;16.77;;;15.10;;
3911;SDS011;1971;51.778;10.330;2024-02-28T14:06:11;15.40;;;13.80;;
3911;SDS011;1971;51.778;10.330;2024-02-28T14:08:41;15.53;;;13.93;;
3911;SDS011;1971;51.778;10.330;2024-02-28T14:11:12;15.10;;;13.60;;
3911;SDS011;1971;51.778;10.330;2024-02-28T14:13:44;21.97;;;14.87;;
3911;SDS011;1971;51.778;10.330;2024-02-28T14:16:16;15.57;;;13.77;;
3911;SDS011;1971;51.778;10.330;2024-02-28T14:18:47;15.00;;;13.47;;
3911;SDS011;1971;51.778;10.330;2024-02-28T14:21:17;18.93;;;14.00;;
3911;SDS011;1971;51.778;10.330;2024-02-28T14:23:49;18.10;;;14.43;;
3911;SDS011;1971;51.778;10.330;2024-02-28T14:26:20;14.33;;;12.93;;
3911;SDS011;1971;51.778;10.330;2024-02-28T14:28:51;30.93;;;14.10;;
3911;SDS011;1971;51.778;10.330;2024-02-28T14:31:25;12.47;;;11.37;;
3911;SDS011;1971;51.778;10.330;2024-02-28T14:33:55;14.70;;;13.30;;
3911;SDS011;1971;51.778;10.330;2024-02-28T14:36:25;14.43;;;13.10;;
3911;SDS011;1971;51.778;10.330;2024-02-28T14:38:55;15.07;;;13.50;;
3911;SDS011;1971;51.778;10.330;2024-02-28T14:41:26;15.80;;;14.10;;
3911;SDS011;1971;51.778;10.330;2024-02-28T14:43:58;14.50;;;13.00;;
3911;SDS011;1971;51.778;10.330;2024-02-28T14:46:31;14.20;;;12.87;;
3911;SDS011;1971;51.778;10.330;2024-02-28T14:49:01;15.27;;;13.87;;
3911;SDS011;1971;51.778;10.330;2024-02-28T14:51:31;13.17;;;11.87;;
3911;SDS011;1971;51.778;10.330;2024-02-28T14:54:05;14.87;;;13.47;;
3911;SDS011;1971;51.778;10.330;2024-02-28T14:56:35;16.20;;;14.60;;
3911;SDS011;1971;51.778;10.330;2024-02-28T14:59:05;12.27;;;11.13;;
3911;SDS011;1971;51.778;10.330;2024-02-28T15:01:38;13.43;;;12.10;;
3911;SDS011;1971;51.778;10.330;2024-02-28T15:04:09;14.00;;;12.63;;
3911;SDS011;1971;51.778;10.330;2024-02-28T15:06:41;15.13;;;13.73;;
3911;SDS011;1971;51.778;10.330;2024-02-28T15:09:11;15.53;;;14.03;;